Time;durP1;ratioP1;P1;durP2;ratioP2;P2;SDS_P1;SDS_P2;PMS_P1;PMS_P2;Temp;Humidity;BMP_temperature;BMP_pressure;BME280_temperature;BME280_humidity;BME280_pressure;Samples;Min_cycle;Max_cycle;Signal;HPM_P1;HPM_P2
2022/08/07 00:00:26;;;;;;;6.47;4.65;;;14.20;99.90;;;;;;5094686;28;20037;-74
2022/08/07 00:02:54;;;;;;;6.45;5.28;;;14.20;99.90;;;;;;5095634;28;20538;-76
2022/08/07 00:05:20;;;;;;;7.38;4.90;;;14.10;99.90;;;;;;5095656;28;20027;-76
2022/08/07 00:07:46;;;;;;;5.35;4.80;;;14.10;99.90;;;;;;5095521;28;20020;-77
2022/08/07 00:10:12;;;;;;;5.15;4.72;;;14.00;99.90;;;;;;5095684;28;20124;-76
2022/08/07 00:12:38;;;;;;;7.18;4.90;;;14.00;99.90;;;;;;5095574;28;20032;-74
2022/08/07 00:15:04;;;;;;;6.28;5.15;;;14.00;99.90;;;;;;5095620;28;20016;-74
2022/08/07 00:17:30;;;;;;;8.82;4.65;;;13.90;99.90;;;;;;5095419;28;20063;-76
2022/08/07 00:19:55;;;;;;;6.15;5.28;;;13.90;99.90;;;;;;5095374;28;20056;-75
2022/08/07 00:22:21;;;;;;;5.70;4.78;;;13.80;99.90;;;;;;5095387;28;20385;-75
2022/08/07 00:24:47;;;;;;;6.85;5.20;;;13.70;99.90;;;;;;5095341;28;20386;-76
2022/08/07 00:27:12;;;;;;;10.73;6.35;;;13.70;99.90;;;;;;5094005;28;20027;-74
2022/08/07 00:29:38;;;;;;;6.25;5.60;;;13.70;99.90;;;;;;5095110;28;20031;-75
2022/08/07 00:32:05;;;;;;;11.13;5.82;;;13.70;99.90;;;;;;5093937;28;20028;-74
2022/08/07 00:34:30;;;;;;;8.27;5.93;;;13.60;99.90;;;;;;5094965;28;20020;-76
2022/08/07 00:36:56;;;;;;;7.18;5.28;;;13.60;99.90;;;;;;5095127;28;20477;-76
2022/08/07 00:39:22;;;;;;;8.77;4.80;;;13.60;99.90;;;;;;5093656;28;20490;-76
2022/08/07 00:41:50;;;;;;;9.85;7.15;;;13.50;99.90;;;;;;5093878;28;20051;-75
2022/08/07 00:44:16;;;;;;;5.90;5.25;;;13.50;99.90;;;;;;5094993;28;20097;-76
2022/08/07 00:46:42;;;;;;;7.60;4.63;;;13.40;99.90;;;;;;5095000;28;20020;-74
2022/08/07 00:49:08;;;;;;;4.88;4.05;;;13.40;99.90;;;;;;5094999;28;20080;-74
2022/08/07 00:51:34;;;;;;;6.07;4.53;;;13.30;99.90;;;;;;5093705;28;20024;-74
2022/08/07 00:54:00;;;;;;;6.75;5.40;;;13.30;99.90;;;;;;5094706;28;20373;-74
2022/08/07 00:56:28;;;;;;;6.47;5.60;;;13.30;99.90;;;;;;5095092;28;20069;-76
2022/08/07 00:58:54;;;;;;;5.20;3.95;;;13.20;99.90;;;;;;5094677;28;20060;-76
2022/08/07 01:01:21;;;;;;;5.05;4.35;;;13.10;99.90;;;;;;5094555;28;20043;-76
2022/08/07 01:03:48;;;;;;;11.45;5.38;;;13.10;99.90;;;;;;5094456;28;20034;-73
2022/08/07 01:06:15;;;;;;;4.60;3.53;;;13.10;99.90;;;;;;5094678;28;20111;-74
2022/08/07 01:08:40;;;;;;;5.30;3.22;;;13.00;99.90;;;;;;5093124;28;20549;-76
2022/08/07 01:11:07;;;;;;;2.60;2.50;;;13.00;99.90;;;;;;5093135;28;20115;-76
2022/08/07 01:13:33;;;;;;;3.40;2.70;;;13.00;99.90;;;;;;5092844;28;20116;-73
2022/08/07 01:16:01;;;;;;;2.63;2.42;;;12.90;99.90;;;;;;5093226;28;20020;-74
2022/08/07 01:18:28;;;;;;;4.43;3.50;;;12.80;99.90;;;;;;5093077;28;20055;-73
2022/08/07 01:21:23;;;;;;;7.32;4.40;;;12.80;99.90;;;;;;5094061;28;20114;-76
2022/08/07 01:23:50;;;;;;;6.18;4.60;;;12.80;99.90;;;;;;5094241;28;20019;-74
2022/08/07 01:26:19;;;;;;;9.55;4.82;;;12.70;99.90;;;;;;5092851;28;20016;-74
2022/08/07 01:28:47;;;;;;;10.57;5.45;;;12.70;99.90;;;;;;5092733;28;20438;-76
2022/08/07 01:31:14;;;;;;;6.82;5.25;;;12.70;99.90;;;;;;5093975;28;20043;-76
2022/08/07 01:33:40;;;;;;;9.77;4.90;;;12.70;99.90;;;;;;5093898;28;20028;-76
2022/08/07 01:36:08;;;;;;;5.68;4.00;;;12.70;99.90;;;;;;5092690;28;20051;-76
2022/08/07 01:38:34;;;;;;;4.95;4.50;;;12.60;99.90;;;;;;5093910;28;20024;-74
2022/08/07 01:41:03;;;;;;;4.65;3.88;;;12.50;99.90;;;;;;5093821;28;20509;-76
2022/08/07 01:43:30;;;;;;;5.57;4.63;;;12.50;99.90;;;;;;5093777;28;20020;-76
2022/08/07 01:45:57;;;;;;;5.38;4.22;;;12.50;99.90;;;;;;5093725;28;20494;-77
2022/08/07 01:48:23;;;;;;;4.22;3.60;;;12.40;99.90;;;;;;5093615;28;20417;-76
2022/08/07 01:50:59;;;;;;;4.30;3.90;;;12.40;99.90;;;;;;5093566;28;20056;-74
2022/08/07 01:53:27;;;;;;;4.55;4.13;;;12.40;99.90;;;;;;5093684;28;20055;-76
2022/08/07 01:56:04;;;;;;;5.60;4.75;;;12.40;99.90;;;;;;5093620;28;20103;-74
2022/08/07 01:58:34;;;;;;;4.63;4.00;;;12.40;99.90;;;;;;5092415;28;20024;-76
2022/08/07 02:01:05;;;;;;;5.85;5.35;;;12.40;99.90;;;;;;5093624;28;20024;-77
2022/08/07 02:03:38;;;;;;;5.40;3.83;;;12.40;99.90;;;;;;5093371;28;20028;-73
2022/08/07 02:06:09;;;;;;;3.80;3.47;;;12.40;99.90;;;;;;5093538;28;20103;-73
2022/08/07 02:08:39;;;;;;;4.63;4.10;;;12.40;99.90;;;;;;5093556;28;20024;-75
2022/08/07 02:11:05;;;;;;;4.72;3.35;;;12.30;99.90;;;;;;5093346;28;20032;-74
2022/08/07 02:13:33;;;;;;;3.80;2.85;;;12.30;99.90;;;;;;5093305;28;20017;-76
2022/08/07 02:16:01;;;;;;;2.75;2.40;;;12.30;99.90;;;;;;5093388;28;20427;-76
2022/08/07 02:18:30;;;;;;;3.40;3.10;;;12.20;99.90;;;;;;5092023;28;20077;-76
2022/08/07 02:20:57;;;;;;;8.32;7.53;;;12.10;99.90;;;;;;5093312;28;20024;-76
2022/08/07 02:23:25;;;;;;;6.55;6.03;;;12.00;99.90;;;;;;5093258;28;20022;-75
2022/08/07 02:25:53;;;;;;;5.15;4.68;;;11.90;99.90;;;;;;5093410;28;20099;-76
2022/08/07 02:28:20;;;;;;;7.68;7.03;;;11.90;99.90;;;;;;5093256;28;20069;-74
2022/08/07 02:30:48;;;;;;;8.95;8.15;;;11.80;99.90;;;;;;5091911;28;20025;-76
2022/08/07 02:33:15;;;;;;;9.68;8.77;;;11.90;99.90;;;;;;5093270;28;20099;-76
2022/08/07 02:35:42;;;;;;;4.43;4.05;;;11.80;99.90;;;;;;5091751;28;20032;-74
2022/08/07 02:38:11;;;;;;;3.45;3.13;;;11.80;99.90;;;;;;5093085;28;20028;-75
2022/08/07 02:40:37;;;;;;;4.68;3.65;;;11.80;99.90;;;;;;5092945;28;20099;-74
2022/08/07 02:43:05;;;;;;;4.50;3.47;;;11.80;99.90;;;;;;5091896;28;20419;-76
2022/08/07 02:45:31;;;;;;;3.80;3.50;;;11.80;99.90;;;;;;5092887;28;20221;-74
2022/08/07 02:47:58;;;;;;;5.40;3.65;;;11.70;99.90;;;;;;5093013;28;20048;-76
2022/08/07 02:50:24;;;;;;;3.78;3.38;;;11.70;99.90;;;;;;5093057;28;20385;-76
2022/08/07 02:52:54;;;;;;;4.85;4.28;;;11.60;99.90;;;;;;5093073;28;20032;-73
2022/08/07 02:55:25;;;;;;;6.85;4.05;;;11.70;99.90;;;;;;5092735;28;20119;-74
2022/08/07 02:57:54;;;;;;;10.10;8.38;;;11.60;99.90;;;;;;5091694;28;20385;-73
2022/08/07 03:00:22;;;;;;;10.02;6.03;;;11.60;99.90;;;;;;5091656;28;20043;-76
2022/08/07 03:02:48;;;;;;;11.45;4.85;;;11.60;99.90;;;;;;5092864;28;20027;-74
2022/08/07 03:05:15;;;;;;;7.07;5.80;;;11.60;99.90;;;;;;5092883;28;20097;-74
2022/08/07 03:07:43;;;;;;;10.05;6.25;;;11.60;99.90;;;;;;5093076;28;20020;-73
2022/08/07 03:10:09;;;;;;;6.65;6.00;;;11.50;99.90;;;;;;5092817;28;20020;-77
2022/08/07 03:12:36;;;;;;;7.20;6.50;;;11.50;99.90;;;;;;5092657;28;20093;-76
2022/08/07 03:15:04;;;;;;;7.22;5.43;;;11.50;99.90;;;;;;5095336;28;20063;-76
2022/08/07 03:17:32;;;;;;;8.20;7.22;;;11.40;99.90;;;;;;5096444;28;20028;-76
2022/08/07 03:19:58;;;;;;;6.95;6.25;;;11.40;99.90;;;;;;5096737;28;20437;-74
2022/08/07 03:22:25;;;;;;;9.15;7.80;;;11.40;99.90;;;;;;5095325;28;20028;-73
2022/08/07 03:24:51;;;;;;;9.00;6.40;;;11.40;99.90;;;;;;5095367;28;20077;-74
2022/08/07 03:27:18;;;;;;;8.18;6.80;;;11.40;99.90;;;;;;5095150;28;20028;-76
2022/08/07 03:29:50;;;;;;;5.43;4.93;;;11.40;99.90;;;;;;5096554;28;20099;-76
2022/08/07 03:32:20;;;;;;;6.72;5.18;;;11.40;99.90;;;;;;5096427;28;20032;-74
2022/08/07 03:34:48;;;;;;;10.70;5.53;;;11.50;99.90;;;;;;5095283;28;20060;-76
2022/08/07 03:37:20;;;;;;;5.93;5.43;;;11.50;99.90;;;;;;5095041;28;20027;-74
2022/08/07 03:39:46;;;;;;;6.55;5.63;;;11.50;99.90;;;;;;5095128;28;20024;-76
2022/08/07 03:42:14;;;;;;;7.30;5.50;;;11.50;99.90;;;;;;5096090;28;20020;-73
2022/08/07 03:44:40;;;;;;;7.38;6.28;;;11.50;99.90;;;;;;5094986;28;20490;-74
2022/08/07 03:47:06;;;;;;;7.10;4.88;;;11.50;99.90;;;;;;5094571;28;20158;-76
2022/08/07 03:49:33;;;;;;;6.07;5.35;;;11.40;99.90;;;;;;5096078;28;20036;-74
2022/08/07 03:52:00;;;;;;;6.55;5.78;;;11.40;99.90;;;;;;5095954;28;20032;-76
2022/08/07 03:54:26;;;;;;;7.55;6.13;;;11.50;99.90;;;;;;5095980;28;20444;-76
2022/08/07 03:56:54;;;;;;;5.88;5.25;;;11.50;99.90;;;;;;5095843;28;20138;-77
2022/08/07 03:59:20;;;;;;;8.32;5.25;;;11.50;99.90;;;;;;5095794;28;20024;-76
2022/08/07 04:01:47;;;;;;;5.38;4.28;;;11.60;99.90;;;;;;5095773;28;20099;-73
2022/08/07 04:04:16;;;;;;;8.35;5.82;;;11.60;99.90;;;;;;5095953;28;20381;-76
2022/08/07 04:06:43;;;;;;;6.57;5.90;;;11.80;99.90;;;;;;5095634;28;20032;-76
2022/08/07 04:09:09;;;;;;;6.43;5.63;;;11.90;99.90;;;;;;5095720;28;20555;-74
2022/08/07 04:11:36;;;;;;;8.10;6.38;;;12.00;99.90;;;;;;5095429;28;20088;-73
2022/08/07 04:14:03;;;;;;;9.48;6.40;;;12.20;99.90;;;;;;5095550;28;20024;-75
2022/08/07 04:16:29;;;;;;;7.47;6.35;;;12.50;99.90;;;;;;5095450;28;20024;-76
2022/08/07 04:18:55;;;;;;;9.63;6.57;;;12.70;99.90;;;;;;5094241;28;20541;-74
2022/08/07 04:21:20;;;;;;;8.45;6.22;;;12.90;99.90;;;;;;5094218;28;20055;-75
2022/08/07 04:23:47;;;;;;;7.22;6.50;;;13.10;99.90;;;;;;5094233;28;20028;-74
2022/08/07 04:26:13;;;;;;;6.53;5.57;;;13.30;99.90;;;;;;5094048;28;20027;-76
2022/08/07 04:28:42;;;;;;;11.07;5.47;;;13.40;99.90;;;;;;5095302;28;20108;-75
2022/08/07 04:31:08;;;;;;;6.40;5.32;;;13.60;99.90;;;;;;5094015;28;20032;-74
2022/08/07 04:33:35;;;;;;;8.85;5.22;;;13.70;99.90;;;;;;5093823;28;20065;-76
2022/08/07 04:36:02;;;;;;;7.05;5.55;;;13.90;99.90;;;;;;5095270;28;20030;-76
2022/08/07 04:38:28;;;;;;;7.32;6.55;;;13.90;99.90;;;;;;5095177;28;20035;-74
2022/08/07 04:40:54;;;;;;;7.13;6.53;;;14.00;99.90;;;;;;5095078;28;20028;-75
2022/08/07 04:43:29;;;;;;;8.65;6.93;;;14.10;99.90;;;;;;5094924;28;20035;-76
2022/08/07 04:46:06;;;;;;;10.15;7.68;;;14.30;99.90;;;;;;5093737;28;20024;-76
2022/08/07 04:48:43;;;;;;;9.43;6.88;;;14.40;99.90;;;;;;5094861;28;20052;-75
2022/08/07 04:51:26;;;;;;;10.55;7.88;;;14.60;99.90;;;;;;5093666;28;20136;-73
2022/08/07 04:54:02;;;;;;;7.63;6.82;;;14.70;99.90;;;;;;5094729;28;20036;-76
2022/08/07 04:56:39;;;;;;;8.63;7.43;;;14.80;99.90;;;;;;5094981;28;20059;-74
2022/08/07 04:59:30;;;;;;;10.73;7.68;;;14.90;99.90;;;;;;5094730;28;20426;-74
2022/08/07 05:02:09;;;;;;;15.77;11.32;;;14.90;99.90;;;;;;5094806;28;20031;-74
2022/08/07 05:04:58;;;;;;;14.63;9.55;;;14.90;99.90;;;;;;5093391;28;20012;-75
2022/08/07 05:07:46;;;;;;;15.00;9.30;;;15.00;99.90;;;;;;5094339;28;20035;-74
2022/08/07 05:10:47;;;;;;;14.18;10.15;;;15.10;99.90;;;;;;5094684;28;20016;-75
2022/08/07 05:13:35;;;;;;;9.13;8.15;;;15.10;99.90;;;;;;5082993;28;20063;-76
2022/08/07 05:16:06;;;;;;;13.00;9.10;;;15.10;99.90;;;;;;5094455;28;20089;-74
2022/08/07 05:18:36;;;;;;;10.85;9.15;;;15.20;99.90;;;;;;5093112;28;20048;-74
2022/08/07 05:21:04;;;;;;;10.50;9.50;;;15.20;99.90;;;;;;5094293;28;20420;-76
2022/08/07 05:23:40;;;;;;;9.27;8.38;;;15.30;99.90;;;;;;5094077;28;20069;-74
2022/08/07 05:26:11;;;;;;;11.02;9.73;;;15.40;99.90;;;;;;5091908;28;20031;-74
2022/08/07 05:28:37;;;;;;;10.93;9.05;;;15.50;99.90;;;;;;5093815;28;20074;-74
2022/08/07 05:31:04;;;;;;;9.23;8.32;;;15.70;99.90;;;;;;5093745;28;20035;-74
2022/08/07 05:33:32;;;;;;;11.60;8.20;;;15.80;99.90;;;;;;5092885;28;20024;-76
2022/08/07 05:36:00;;;;;;;12.30;8.85;;;15.80;99.90;;;;;;5093868;28;20045;-74
2022/08/07 05:38:27;;;;;;;9.25;8.35;;;16.10;99.90;;;;;;5093396;28;20042;-76
2022/08/07 05:40:53;;;;;;;9.80;7.95;;;16.20;99.90;;;;;;5093885;28;20016;-75
2022/08/07 05:43:19;;;;;;;12.23;8.73;;;16.20;99.90;;;;;;5093677;28;20465;-76
2022/08/07 05:45:47;;;;;;;9.80;7.70;;;16.40;99.90;;;;;;5092542;28;20021;-76
2022/08/07 05:48:13;;;;;;;8.05;7.07;;;16.40;99.90;;;;;;5092090;28;20067;-75
2022/08/07 05:50:41;;;;;;;12.13;6.93;;;16.50;99.90;;;;;;5093365;28;20389;-76
2022/08/07 05:53:07;;;;;;;8.57;7.03;;;16.60;99.90;;;;;;5093514;28;20150;-74
2022/08/07 05:55:34;;;;;;;7.50;6.70;;;16.80;99.90;;;;;;5093637;28;20103;-75
2022/08/07 05:58:01;;;;;;;6.57;5.95;;;17.00;99.90;;;;;;5093490;28;20027;-74
2022/08/07 06:00:28;;;;;;;7.93;5.25;;;17.30;99.90;;;;;;5093542;28;20028;-74
2022/08/07 06:02:56;;;;;;;8.77;6.25;;;17.40;99.90;;;;;;5093078;28;20028;-75
2022/08/07 06:05:27;;;;;;;6.07;5.57;;;17.40;99.90;;;;;;5092967;28;20421;-74
2022/08/07 06:07:53;;;;;;;6.78;6.15;;;17.60;99.90;;;;;;5093285;28;20111;-74
2022/08/07 06:10:20;;;;;;;5.93;4.97;;;17.70;99.90;;;;;;5093348;28;20489;-74
2022/08/07 06:12:46;;;;;;;6.90;6.15;;;17.70;99.90;;;;;;5093394;28;20043;-75
2022/08/07 06:15:14;;;;;;;6.13;5.57;;;17.70;99.90;;;;;;5091424;28;20473;-76
2022/08/07 06:17:42;;;;;;;8.27;6.28;;;17.60;99.90;;;;;;5092811;28;20177;-75
2022/08/07 06:20:09;;;;;;;8.50;5.82;;;17.60;99.90;;;;;;5093207;28;20066;-75
2022/08/07 06:22:37;;;;;;;9.65;6.53;;;17.50;99.90;;;;;;5091652;28;20397;-74
2022/08/07 06:25:04;;;;;;;8.35;6.25;;;17.40;99.90;;;;;;5091955;28;20107;-74
2022/08/07 06:27:30;;;;;;;7.63;5.95;;;17.50;99.90;;;;;;5092162;28;20024;-74
2022/08/07 06:29:56;;;;;;;7.18;6.38;;;17.60;99.90;;;;;;5092864;28;20018;-74
2022/08/07 06:32:22;;;;;;;7.35;6.65;;;17.80;99.90;;;;;;5093025;28;20040;-74
2022/08/07 06:34:47;;;;;;;10.32;6.22;;;17.70;99.90;;;;;;5093101;28;20069;-74
2022/08/07 06:37:13;;;;;;;9.07;5.63;;;17.70;99.90;;;;;;5093016;28;20386;-75
2022/08/07 06:39:38;;;;;;;6.45;5.85;;;17.80;99.90;;;;;;5092975;28;20431;-74
2022/08/07 06:42:14;;;;;;;7.78;6.18;;;17.80;99.90;;;;;;5083074;28;20081;-75
2022/08/07 06:44:41;;;;;;;7.53;6.82;;;17.80;99.90;;;;;;5088589;28;20887;-75
2022/08/07 06:47:07;;;;;;;8.23;6.45;;;18.00;99.90;;;;;;5092449;28;20070;-75
2022/08/07 06:49:32;;;;;;;6.93;5.57;;;18.20;99.90;;;;;;5094349;28;20035;-75
2022/08/07 06:52:00;;;;;;;7.15;5.40;;;18.30;99.90;;;;;;5096755;28;20032;-75
2022/08/07 06:54:27;;;;;;;5.88;5.35;;;18.10;99.90;;;;;;5096780;28;20469;-74
2022/08/07 06:56:54;;;;;;;7.80;5.43;;;18.10;99.90;;;;;;5096818;28;20020;-74
2022/08/07 06:59:32;;;;;;;8.15;6.47;;;17.90;99.90;;;;;;5096103;28;20108;-74
2022/08/07 07:01:59;;;;;;;8.43;5.50;;;17.80;99.90;;;;;;5090543;28;20024;-74
2022/08/07 07:04:25;;;;;;;10.73;6.32;;;18.00;99.90;;;;;;5096578;28;20062;-74
2022/08/07 07:06:52;;;;;;;8.00;6.38;;;18.00;99.90;;;;;;5096734;28;20031;-74
2022/08/07 07:09:21;;;;;;;9.32;6.68;;;18.00;99.90;;;;;;5094916;28;20032;-74
2022/08/07 07:12:05;;;;;;;8.32;7.35;;;17.80;99.90;;;;;;5096535;28;20086;-75
2022/08/07 07:14:56;;;;;;;7.60;6.80;;;17.80;99.90;;;;;;5095907;28;20097;-74
2022/08/07 07:17:51;;;;;;;10.27;7.65;;;17.70;99.90;;;;;;5089901;28;20021;-74
2022/08/07 07:20:20;;;;;;;9.13;7.18;;;17.60;99.90;;;;;;5093054;28;20088;-74
2022/08/07 07:22:47;;;;;;;9.85;8.05;;;17.40;99.90;;;;;;5082816;28;20039;-74
2022/08/07 07:25:15;;;;;;;10.38;9.25;;;17.30;99.90;;;;;;5095493;28;20482;-74
2022/08/07 07:28:11;;;;;;;9.40;7.88;;;17.30;99.90;;;;;;5092176;28;20028;-74
2022/08/07 07:30:41;;;;;;;9.13;8.05;;;17.30;99.90;;;;;;5093565;28;20420;-74
2022/08/07 07:33:10;;;;;;;9.80;8.23;;;17.20;99.90;;;;;;5095468;28;20020;-75
2022/08/07 07:35:36;;;;;;;8.57;7.30;;;17.40;99.90;;;;;;5095740;28;20032;-74
2022/08/07 07:38:04;;;;;;;7.05;5.72;;;17.60;99.90;;;;;;5094678;28;20032;-74
2022/08/07 07:40:31;;;;;;;6.80;5.60;;;17.80;99.90;;;;;;5095806;28;20024;-74
2022/08/07 07:42:59;;;;;;;8.00;6.30;;;18.10;99.90;;;;;;5084461;28;20024;-75
2022/08/07 07:45:27;;;;;;;7.22;6.05;;;18.30;99.90;;;;;;5095149;28;20020;-74
2022/08/07 07:47:56;;;;;;;7.45;4.65;;;18.50;99.90;;;;;;5094366;28;20072;-74
2022/08/07 07:50:23;;;;;;;5.03;4.50;;;18.50;99.90;;;;;;5095628;28;20020;-76
2022/08/07 07:52:50;;;;;;;6.70;4.53;;;18.40;99.90;;;;;;5086615;28;20075;-76
2022/08/07 07:55:18;;;;;;;6.00;3.90;;;18.50;99.90;;;;;;5088948;28;20020;-75
2022/08/07 07:57:48;;;;;;;8.55;3.65;;;18.50;99.90;;;;;;5095678;28;20024;-75
2022/08/07 08:00:15;;;;;;;4.22;3.72;;;18.50;99.90;;;;;;5094601;28;20030;-75
2022/08/07 08:02:41;;;;;;;6.07;5.15;;;18.60;99.90;;;;;;5094024;28;20027;-76
2022/08/07 08:05:09;;;;;;;7.20;5.22;;;18.70;99.90;;;;;;5077966;28;20021;-74
2022/08/07 08:07:36;;;;;;;6.18;5.10;;;18.60;99.90;;;;;;5073720;28;20107;-74
2022/08/07 08:10:04;;;;;;;6.88;5.40;;;18.60;99.90;;;;;;5093992;28;20016;-74
2022/08/07 08:12:32;;;;;;;5.93;4.63;;;18.50;99.90;;;;;;5095590;28;20038;-76
2022/08/07 08:14:58;;;;;;;7.07;5.80;;;18.50;99.90;;;;;;5094218;28;20535;-74
2022/08/07 08:17:25;;;;;;;6.30;5.40;;;18.50;99.90;;;;;;5094015;28;20039;-76
2022/08/07 08:19:55;;;;;;;6.45;5.78;;;18.40;99.90;;;;;;5095431;28;20112;-76
2022/08/07 08:27:55;;;;;;;9.98;6.90;;;18.30;99.90;;;;;;5095173;28;20093;-76
2022/08/07 08:30:22;;;;;;;11.18;6.30;;;18.30;99.90;;;;;;5094128;28;20028;-76
2022/08/07 08:32:55;;;;;;;7.15;5.97;;;18.30;99.90;;;;;;5093350;28;20074;-76
2022/08/07 08:35:24;;;;;;;8.32;6.10;;;18.50;99.90;;;;;;5093665;28;20035;-76
2022/08/07 08:37:57;;;;;;;6.68;5.97;;;18.50;99.90;;;;;;5094526;28;20108;-74
2022/08/07 08:40:31;;;;;;;6.15;5.60;;;18.50;99.90;;;;;;5093456;28;20077;-76
2022/08/07 08:43:20;;;;;;;7.47;6.22;;;18.40;99.90;;;;;;5093541;28;20469;-74
2022/08/07 08:45:56;;;;;;;6.00;5.10;;;18.80;99.90;;;;;;5094984;28;20070;-74
2022/08/07 08:48:50;;;;;;;6.85;5.18;;;18.90;99.90;;;;;;5094703;28;20063;-74
2022/08/07 08:51:24;;;;;;;5.95;5.45;;;19.40;99.90;;;;;;5091860;28;20089;-84
2022/08/07 08:54:07;;;;;;;5.40;4.90;;;19.40;99.90;;;;;;5093208;28;20024;-84
2022/08/07 08:56:37;;;;;;;5.68;5.18;;;19.30;98.60;;;;;;5093140;28;20428;-84
2022/08/07 08:59:27;;;;;;;5.30;4.80;;;19.30;99.90;;;;;;5092750;28;20027;-84
2022/08/07 09:02:18;;;;;;;7.05;4.43;;;19.30;96.70;;;;;;5093256;28;20020;-79
2022/08/07 09:05:09;;;;;;;4.03;3.72;;;19.20;96.90;;;;;;5093487;28;20027;-85
2022/08/07 09:07:41;;;;;;;5.72;4.10;;;19.00;97.30;;;;;;5091120;28;20020;-84
2022/08/07 09:10:30;;;;;;;4.50;4.00;;;19.00;92.20;;;;;;5092502;28;20020;-78
2022/08/07 09:13:02;;;;;;;4.55;3.92;;;19.00;89.20;;;;;;5090195;28;20043;-79
2022/08/07 09:15:40;;;;;;;9.23;3.72;;;19.20;87.40;;;;;;5090982;28;20073;-79
2022/08/07 09:18:15;;;;;;;4.22;2.70;;;19.50;87.20;;;;;;5092366;28;20116;-84
2022/08/07 09:21:10;;;;;;;4.20;3.08;;;19.90;75.40;;;;;;5092896;28;20024;-84
2022/08/07 09:24:08;;;;;;;2.88;2.67;;;20.10;74.60;;;;;;5093082;28;20047;-78
2022/08/07 09:26:52;;;;;;;2.53;2.33;;;20.40;79.90;;;;;;5066438;28;20108;-79
2022/08/07 09:29:42;;;;;;;4.45;2.70;;;20.20;68.80;;;;;;5073895;28;20031;-84
2022/08/07 09:32:24;;;;;;;2.78;2.10;;;20.40;71.00;;;;;;5072279;28;20043;-78
2022/08/07 09:34:50;;;;;;;;;;;20.30;67.30;;;;;;5074192;28;20028;-79
2022/08/07 09:37:35;;;;;;;1.88;1.30;;;20.40;68.70;;;;;;5072226;28;19904;-78
2022/08/07 09:40:20;;;;;;;2.05;1.90;;;20.30;62.00;;;;;;5072370;28;20040;-79
2022/08/07 09:42:58;;;;;;;3.83;2.67;;;20.70;64.80;;;;;;5072138;28;20504;-78
2022/08/07 09:45:43;;;;;;;4.40;2.38;;;20.70;69.30;;;;;;5073476;28;20110;-79
2022/08/07 09:48:16;;;;;;;2.70;1.85;;;21.20;67.40;;;;;;5073292;28;20093;-77
2022/08/07 09:51:15;;;;;;;4.13;1.48;;;21.20;63.50;;;;;;5073357;28;20029;-78
2022/08/07 09:53:44;;;;;;;4.20;2.10;;;21.50;64.70;;;;;;5082328;28;20046;-78
2022/08/07 09:56:31;;;;;;;2.30;1.75;;;21.60;62.90;;;;;;5092358;28;20028;-79
2022/08/07 09:59:15;;;;;;;2.05;1.40;;;21.20;58.60;;;;;;5093608;28;20157;-79
2022/08/07 10:01:46;;;;;;;1.45;1.15;;;21.20;59.90;;;;;;5092057;28;20028;-79
2022/08/07 10:04:36;;;;;;;1.55;1.23;;;21.60;58.70;;;;;;5093573;28;20031;-80
2022/08/07 10:07:30;;;;;;;1.63;0.90;;;21.60;59.40;;;;;;5093306;28;20081;-85
2022/08/07 10:10:31;;;;;;;1.27;1.20;;;21.70;58.10;;;;;;5092335;28;20028;-80
2022/08/07 10:13:20;;;;;;;2.17;1.08;;;21.90;58.40;;;;;;5079938;28;20040;-87
2022/08/07 10:16:05;;;;;;;1.10;0.90;;;21.70;57.10;;;;;;5093544;28;20085;-88
2022/08/07 10:18:55;;;;;;;1.40;1.00;;;21.90;58.60;;;;;;5092071;28;20056;-85
2022/08/07 10:21:37;;;;;;;2.20;1.20;;;22.00;56.90;;;;;;5093582;28;20059;-84
2022/08/07 10:24:12;;;;;;;1.00;0.90;;;22.20;56.80;;;;;;5092036;28;20031;-85
2022/08/07 10:26:44;;;;;;;4.53;1.67;;;22.20;56.20;;;;;;5092035;28;20028;-85
2022/08/07 10:29:18;;;;;;;2.90;0.90;;;22.00;54.80;;;;;;5090244;28;20024;-79
2022/08/07 10:31:52;;;;;;;4.45;1.17;;;22.20;55.40;;;;;;5091137;28;20138;-84
2022/08/07 10:34:24;;;;;;;3.25;1.13;;;22.20;54.10;;;;;;5091829;28;20024;-77
2022/08/07 10:37:09;;;;;;;1.75;0.90;;;22.00;55.50;;;;;;5093150;28;20024;-81
2022/08/07 10:39:57;;;;;;;1.73;0.80;;;21.60;54.00;;;;;;5093167;28;20040;-81
2022/08/07 10:42:44;;;;;;;4.25;1.20;;;21.70;55.70;;;;;;5093000;28;20024;-77
2022/08/07 10:45:19;;;;;;;1.85;1.00;;;21.80;55.00;;;;;;5071968;28;20107;-79
2022/08/07 10:48:25;;;;;;;2.72;1.63;;;22.00;54.60;;;;;;5074920;28;20492;-67
2022/08/07 10:51:19;;;;;;;1.23;1.00;;;21.80;54.90;;;;;;5084609;28;20031;-81
2022/08/07 10:54:03;;;;;;;2.55;1.13;;;21.50;55.20;;;;;;5092250;28;20049;-81
2022/08/07 10:57:14;;;;;;;3.60;1.27;;;21.50;55.60;;;;;;5091424;28;20089;-80
2022/08/07 10:59:51;;;;;;;2.33;1.30;;;21.20;55.60;;;;;;5085413;28;20046;-80
2022/08/07 11:02:36;;;;;;;1.33;1.20;;;21.50;55.50;;;;;;5088114;28;20024;-81
2022/08/07 11:05:15;;;;;;;2.17;1.20;;;21.50;54.30;;;;;;5088293;28;20036;-79
2022/08/07 11:08:16;;;;;;;2.38;1.40;;;21.70;53.80;;;;;;5091536;28;20028;-78
2022/08/07 11:10:54;;;;;;;2.83;1.17;;;21.90;54.10;;;;;;5092034;28;20103;-78
2022/08/07 11:13:45;;;;;;;1.55;1.08;;;22.20;52.60;;;;;;5091264;28;20032;-79
2022/08/07 11:16:19;;;;;;;3.28;1.42;;;22.40;53.70;;;;;;5091350;28;20440;-79
2022/08/07 11:18:55;;;;;;;1.25;1.08;;;22.40;51.50;;;;;;5091108;28;20115;-77
2022/08/07 11:21:28;;;;;;;2.47;1.10;;;22.50;51.60;;;;;;5081868;28;20021;-77
2022/08/07 11:23:58;;;;;;;1.85;0.77;;;22.40;51.70;;;;;;5077324;28;20460;-77
2022/08/07 11:26:31;;;;;;;1.38;0.73;;;22.50;51.00;;;;;;5078268;28;20038;-78
2022/08/07 11:29:37;;;;;;;1.27;1.17;;;22.50;51.90;;;;;;5080007;28;20021;-79
2022/08/07 11:32:20;;;;;;;2.78;1.45;;;22.60;52.50;;;;;;5079724;28;20045;-80
2022/08/07 11:34:52;;;;;;;2.70;1.20;;;22.30;50.70;;;;;;5075722;28;20040;-79
2022/08/07 11:37:36;;;;;;;1.85;1.10;;;22.00;51.20;;;;;;5096280;28;20047;-78
2022/08/07 11:40:35;;;;;;;2.00;1.45;;;21.80;52.00;;;;;;5096155;28;20020;-79
2022/08/07 11:43:25;;;;;;;2.05;1.02;;;21.90;52.70;;;;;;5077055;28;20047;-77
2022/08/07 11:46:15;;;;;;;1.77;1.15;;;22.10;51.70;;;;;;5089360;28;20024;-80
2022/08/07 11:49:01;;;;;;;1.25;0.95;;;22.30;51.10;;;;;;5093281;28;20083;-81
2022/08/07 11:51:49;;;;;;;1.92;1.05;;;22.40;49.40;;;;;;5087890;28;20040;-80
2022/08/07 11:54:39;;;;;;;1.92;0.98;;;22.70;48.40;;;;;;5094499;28;20027;-80
2022/08/07 11:57:19;;;;;;;1.20;0.90;;;23.00;48.60;;;;;;5094211;28;20389;-78
2022/08/07 12:00:06;;;;;;;1.70;0.95;;;23.00;48.50;;;;;;5095807;28;20093;-78
2022/08/07 12:02:56;;;;;;;3.67;0.90;;;22.90;48.70;;;;;;5095825;28;20023;-78
2022/08/07 12:05:48;;;;;;;2.83;0.98;;;22.60;49.50;;;;;;5092240;28;20028;-78
2022/08/07 12:08:23;;;;;;;3.22;0.90;;;22.20;49.20;;;;;;5092875;28;20017;-86
2022/08/07 12:10:57;;;;;;;1.05;0.82;;;21.90;51.10;;;;;;5094781;28;20024;-77
2022/08/07 12:13:29;;;;;;;3.33;1.23;;;21.90;52.60;;;;;;5073727;28;20028;-80
2022/08/07 12:16:03;;;;;;;1.58;1.05;;;21.80;52.00;;;;;;5080283;28;20042;-77
2022/08/07 12:18:43;;;;;;;1.50;1.00;;;21.80;52.00;;;;;;5094036;28;20493;-76
2022/08/07 12:21:41;;;;;;;2.25;1.00;;;21.80;52.00;;;;;;5095372;28;20031;-77
2022/08/07 12:24:39;;;;;;;1.00;0.90;;;22.00;51.40;;;;;;5093688;28;20020;-77
2022/08/07 12:27:15;;;;;;;1.15;1.15;;;22.30;51.10;;;;;;5086864;28;20032;-80
2022/08/07 12:30:02;;;;;;;1.98;0.93;;;22.30;51.40;;;;;;5094985;28;20497;-80
2022/08/07 12:32:40;;;;;;;0.88;0.80;;;22.20;51.10;;;;;;5093766;28;20032;-77
2022/08/07 12:35:10;;;;;;;1.38;1.00;;;21.80;51.60;;;;;;5094544;28;20020;-78
2022/08/07 12:37:39;;;;;;;2.47;0.85;;;21.50;51.50;;;;;;5095105;28;20095;-85
2022/08/07 12:40:06;;;;;;;0.75;0.75;;;21.40;50.60;;;;;;5093243;28;20031;-85
2022/08/07 12:42:33;;;;;;;3.63;1.48;;;21.80;51.20;;;;;;5094403;28;20028;-84
2022/08/07 12:45:11;;;;;;;0.75;0.75;;;22.20;50.20;;;;;;5094991;28;20031;-78
2022/08/07 12:47:58;;;;;;;1.17;0.70;;;22.60;49.40;;;;;;5093304;28;20555;-84
2022/08/07 12:50:53;;;;;;;0.82;0.80;;;22.50;48.30;;;;;;5094796;28;20456;-85
2022/08/07 12:53:42;;;;;;;2.33;0.82;;;22.40;50.00;;;;;;5093370;28;20036;-76
2022/08/07 12:56:33;;;;;;;1.55;0.90;;;22.10;50.30;;;;;;5094879;28;20012;-77
2022/08/07 12:59:03;;;;;;;1.15;0.80;;;22.00;51.00;;;;;;5093082;28;20028;-76
2022/08/07 13:01:57;;;;;;;1.45;0.90;;;22.30;51.90;;;;;;5094552;28;20024;-76
2022/08/07 13:04:54;;;;;;;1.40;0.90;;;22.20;50.80;;;;;;5092768;28;20547;-76
2022/08/07 13:08:00;;;;;;;0.80;0.80;;;22.10;50.30;;;;;;5071006;28;20508;-78
2022/08/07 13:10:50;;;;;;;7.13;1.15;;;22.00;50.00;;;;;;5073518;28;20044;-86
2022/08/07 13:13:33;;;;;;;3.05;0.98;;;21.80;51.80;;;;;;5093454;28;20040;-78
2022/08/07 13:16:09;;;;;;;1.63;0.93;;;21.70;52.90;;;;;;5092869;28;20016;-84
2022/08/07 13:19:07;;;;;;;5.50;0.95;;;21.90;53.10;;;;;;5091870;28;20103;-84
2022/08/07 13:21:41;;;;;;;2.17;1.00;;;22.20;52.40;;;;;;5093009;28;20050;-78
2022/08/07 13:24:17;;;;;;;8.77;1.38;;;22.20;51.10;;;;;;5090753;28;20028;-78